Time;durP1;ratioP1;P1;durP2;ratioP2;P2;SDS_P1;SDS_P2;PMS_P1;PMS_P2;Temp;Humidity;BMP_temperature;BMP_pressure;BME280_temperature;BME280_humidity;BME280_pressure;Samples;Min_cycle;Max_cycle;Signal;HPM_P1;HPM_P2
2021/09/09 00:01:42;;;;;;;8.52;7.82;;;21.80;70.90;;;;;;5042759;28;20185;-88
2021/09/09 00:04:08;;;;;;;9.25;8.23;;;21.80;70.80;;;;;;5044419;28;20187;-88
2021/09/09 00:06:34;;;;;;;8.30;7.60;;;21.80;71.10;;;;;;5044631;28;20213;-87
2021/09/09 00:09:00;;;;;;;8.18;7.43;;;21.80;70.50;;;;;;5040191;28;20763;-87
2021/09/09 00:11:26;;;;;;;7.30;6.80;;;21.90;70.80;;;;;;5042168;28;20188;-88
2021/09/09 00:13:52;;;;;;;8.43;7.72;;;21.80;70.60;;;;;;5043088;28;20193;-87
2021/09/09 00:16:18;;;;;;;8.98;8.15;;;21.80;70.30;;;;;;5042237;28;20765;-87
2021/09/09 00:18:44;;;;;;;9.30;8.43;;;21.80;70.50;;;;;;5043572;28;20247;-87
2021/09/09 00:21:10;;;;;;;8.95;8.18;;;21.70;71.50;;;;;;5058869;28;20889;-88
2021/09/09 00:23:36;;;;;;;7.93;7.22;;;21.70;71.40;;;;;;5032505;28;20224;-88
2021/09/09 00:26:04;;;;;;;8.93;8.10;;;21.70;71.00;;;;;;5033430;28;20264;-88
2021/09/09 00:28:30;;;;;;;7.60;7.00;;;21.80;70.90;;;;;;5042856;28;20239;-88
2021/09/09 00:30:56;;;;;;;10.05;9.20;;;21.80;70.30;;;;;;5059907;28;20256;-87
2021/09/09 00:33:22;;;;;;;8.63;7.90;;;21.80;70.50;;;;;;5024986;28;20855;-88
2021/09/09 00:35:48;;;;;;;9.20;8.30;;;21.80;70.30;;;;;;5059958;28;20217;-88
2021/09/09 00:38:14;;;;;;;7.97;7.28;;;21.80;70.10;;;;;;5043453;28;20193;-88
2021/09/09 00:40:40;;;;;;;8.48;7.68;;;21.80;70.20;;;;;;5034737;28;20186;-88
2021/09/09 00:43:06;;;;;;;8.95;8.15;;;21.80;70.10;;;;;;5028248;28;20189;-88
2021/09/09 00:45:32;;;;;;;8.40;7.70;;;21.70;70.10;;;;;;5041448;28;20405;-88
2021/09/09 00:47:58;;;;;;;8.15;7.55;;;21.80;70.00;;;;;;5053523;28;20193;-89
2021/09/09 00:50:24;;;;;;;8.43;7.65;;;21.60;70.50;;;;;;5041191;28;20554;-88
2021/09/09 00:52:51;;;;;;;9.52;8.73;;;21.40;71.30;;;;;;5044136;28;20195;-89
2021/09/09 00:55:18;;;;;;;10.68;8.40;;;21.40;71.70;;;;;;5033507;28;20229;-89
2021/09/09 00:57:46;;;;;;;9.20;8.30;;;21.40;71.70;;;;;;5054696;28;20196;-88
2021/09/09 01:00:13;;;;;;;8.35;7.75;;;21.40;71.20;;;;;;5044879;28;20216;-88
2021/09/09 01:02:39;;;;;;;8.82;8.02;;;21.50;71.30;;;;;;5044826;28;20188;-88
2021/09/09 01:05:06;;;;;;;9.90;8.27;;;21.50;70.90;;;;;;5043213;28;20188;-88
2021/09/09 01:07:32;;;;;;;9.70;8.23;;;21.50;70.80;;;;;;5043273;28;20196;-89
2021/09/09 01:09:59;;;;;;;8.48;7.78;;;21.50;70.70;;;;;;5043672;28;20235;-88
2021/09/09 01:12:26;;;;;;;8.98;8.27;;;21.50;70.60;;;;;;5032732;28;20243;-88
2021/09/09 01:14:52;;;;;;;8.48;7.70;;;21.50;70.30;;;;;;5034481;28;20193;-88
2021/09/09 01:17:18;;;;;;;10.55;8.63;;;21.40;70.60;;;;;;5030298;28;20197;-88
2021/09/09 01:19:44;;;;;;;8.45;7.78;;;21.30;70.90;;;;;;5038703;28;20216;-88
2021/09/09 01:22:10;;;;;;;9.43;7.82;;;21.30;70.90;;;;;;5039250;28;20657;-89
2021/09/09 01:24:36;;;;;;;8.57;7.78;;;21.30;70.50;;;;;;5035068;28;20174;-88
2021/09/09 01:27:07;;;;;;;9.23;8.43;;;21.30;70.40;;;;;;5028834;28;20201;-88
2021/09/09 01:29:36;;;;;;;9.15;8.23;;;21.40;70.30;;;;;;5044115;28;20195;-88
2021/09/09 01:32:03;;;;;;;9.15;8.35;;;21.40;70.10;;;;;;5044970;28;20375;-88
2021/09/09 01:34:30;;;;;;;8.73;8.00;;;21.30;70.00;;;;;;5044930;28;20189;-88
2021/09/09 01:36:56;;;;;;;8.85;8.10;;;21.20;70.70;;;;;;5043622;28;20220;-88
2021/09/09 01:39:22;;;;;;;8.88;7.95;;;21.10;71.30;;;;;;5036412;28;20241;-88
2021/09/09 01:41:54;;;;;;;8.23;7.50;;;21.10;71.70;;;;;;5032877;28;20176;-88
2021/09/09 01:44:20;;;;;;;8.40;7.70;;;21.10;72.20;;;;;;5028002;28;20180;-88
2021/09/09 01:46:46;;;;;;;8.73;7.97;;;21.00;72.80;;;;;;5031713;28;20228;-88
2021/09/09 01:49:13;;;;;;;9.30;8.40;;;21.00;72.70;;;;;;5037585;28;20254;-88
2021/09/09 01:51:39;;;;;;;10.85;8.15;;;21.00;72.80;;;;;;5044942;28;20181;-88
2021/09/09 01:54:05;;;;;;;8.80;7.80;;;21.10;72.20;;;;;;5044303;28;20340;-88
2021/09/09 01:56:31;;;;;;;8.93;8.13;;;21.10;72.10;;;;;;5036204;28;20268;-88
2021/09/09 01:58:57;;;;;;;8.38;7.68;;;21.00;71.70;;;;;;5041838;28;21436;-88
2021/09/09 02:01:24;;;;;;;8.88;8.02;;;20.90;71.80;;;;;;5026844;28;20183;-88
2021/09/09 02:03:50;;;;;;;8.98;8.27;;;20.90;71.40;;;;;;5041408;28;20183;-88
2021/09/09 02:06:16;;;;;;;8.02;7.30;;;20.80;71.50;;;;;;5044756;28;20246;-88
2021/09/09 02:08:43;;;;;;;8.77;8.00;;;20.80;72.20;;;;;;5031645;28;20175;-89
2021/09/09 02:11:09;;;;;;;8.38;7.63;;;20.80;72.50;;;;;;5030594;28;20196;-88
2021/09/09 02:13:36;;;;;;;9.15;8.45;;;20.80;72.40;;;;;;5032327;28;20227;-89
2021/09/09 02:16:03;;;;;;;9.23;8.50;;;20.70;72.60;;;;;;5043266;28;20565;-88
2021/09/09 02:18:29;;;;;;;8.27;7.57;;;20.80;72.20;;;;;;5043774;28;20655;-88
2021/09/09 02:20:55;;;;;;;8.57;7.88;;;20.80;72.30;;;;;;5038725;28;20272;-88
2021/09/09 02:23:21;;;;;;;8.73;8.13;;;20.70;72.60;;;;;;5042097;28;20208;-89
2021/09/09 02:25:47;;;;;;;9.00;8.20;;;20.70;72.30;;;;;;5045240;28;20217;-88
2021/09/09 02:28:13;;;;;;;8.68;7.95;;;20.60;72.20;;;;;;5030979;28;20199;-88
2021/09/09 02:30:39;;;;;;;10.25;9.25;;;20.60;72.40;;;;;;5033277;28;20242;-88
2021/09/09 02:33:05;;;;;;;8.27;7.68;;;20.50;72.10;;;;;;5025863;28;20184;-88
2021/09/09 02:35:30;;;;;;;8.80;8.10;;;20.50;72.80;;;;;;5041304;28;20272;-88
2021/09/09 02:37:56;;;;;;;9.27;8.07;;;20.50;72.10;;;;;;5043982;28;20350;-88
2021/09/09 02:40:22;;;;;;;8.30;7.57;;;20.40;73.00;;;;;;5043445;28;20584;-88
2021/09/09 02:42:48;;;;;;;8.90;8.20;;;20.40;72.60;;;;;;5040445;28;20203;-88
2021/09/09 02:45:13;;;;;;;9.40;8.50;;;20.40;72.50;;;;;;5041299;28;20217;-88
2021/09/09 02:47:39;;;;;;;8.70;8.00;;;20.30;73.20;;;;;;5041660;28;20200;-88
2021/09/09 02:50:07;;;;;;;9.15;7.90;;;20.30;73.60;;;;;;5042102;28;20188;-88
2021/09/09 02:52:34;;;;;;;9.55;8.45;;;20.40;73.20;;;;;;5044874;28;20175;-87
2021/09/09 02:54:59;;;;;;;9.25;8.38;;;20.40;72.50;;;;;;5051734;28;20184;-88
2021/09/09 02:57:25;;;;;;;9.73;8.80;;;20.40;72.20;;;;;;5053508;28;20190;-88
2021/09/09 02:59:52;;;;;;;9.85;7.47;;;20.40;72.10;;;;;;5051125;28;20265;-88
2021/09/09 03:02:18;;;;;;;8.60;7.80;;;20.40;71.90;;;;;;5051083;28;20757;-88
2021/09/09 03:04:45;;;;;;;8.55;7.85;;;20.40;72.20;;;;;;5051842;28;20176;-88
2021/09/09 03:07:10;;;;;;;10.52;8.35;;;20.40;72.30;;;;;;5052031;28;20237;-88
2021/09/09 03:09:36;;;;;;;9.40;8.43;;;20.40;71.70;;;;;;5048617;28;20196;-88
2021/09/09 03:12:03;;;;;;;9.05;8.30;;;20.30;71.80;;;;;;5051374;28;20204;-88
2021/09/09 03:14:28;;;;;;;8.68;7.95;;;20.40;71.50;;;;;;5048159;28;20227;-87
2021/09/09 03:16:54;;;;;;;9.10;8.45;;;20.40;71.50;;;;;;5047682;28;20206;-88
2021/09/09 03:19:20;;;;;;;9.02;8.32;;;20.30;71.90;;;;;;5042067;28;20645;-88
2021/09/09 03:21:46;;;;;;;10.20;8.50;;;20.30;72.00;;;;;;5045964;28;20188;-89
2021/09/09 03:24:13;;;;;;;9.18;8.48;;;20.30;72.60;;;;;;5035127;28;20217;-88
2021/09/09 03:26:39;;;;;;;9.60;8.80;;;20.20;73.00;;;;;;5040749;28;20206;-88
2021/09/09 03:29:05;;;;;;;10.70;8.07;;;20.20;72.70;;;;;;5049408;28;20200;-88
2021/09/09 03:31:32;;;;;;;9.93;9.07;;;20.20;72.40;;;;;;5053013;28;20191;-88
2021/09/09 03:33:58;;;;;;;10.10;9.20;;;20.20;72.50;;;;;;5054000;28;20195;-88
2021/09/09 03:36:24;;;;;;;9.30;8.52;;;20.10;73.40;;;;;;5051023;28;20231;-87
2021/09/09 03:38:49;;;;;;;8.98;8.23;;;20.10;73.30;;;;;;5052767;28;20203;-87
2021/09/09 03:41:15;;;;;;;9.10;8.40;;;20.10;72.80;;;;;;5054247;28;20197;-87
2021/09/09 03:43:41;;;;;;;9.25;8.48;;;20.20;72.60;;;;;;5052232;28;20188;-88
2021/09/09 03:46:07;;;;;;;9.52;8.73;;;20.10;72.80;;;;;;5052513;28;20231;-88
2021/09/09 03:48:32;;;;;;;9.20;8.32;;;20.10;72.90;;;;;;5063600;28;20193;-88
2021/09/09 03:50:58;;;;;;;9.75;8.95;;;20.10;72.70;;;;;;5053159;28;20221;-88
2021/09/09 03:53:24;;;;;;;8.63;7.93;;;19.90;72.80;;;;;;5052184;28;20196;-88
2021/09/09 03:55:50;;;;;;;9.23;8.25;;;19.80;73.70;;;;;;5042294;28;20243;-88
2021/09/09 03:58:15;;;;;;;8.93;8.18;;;19.80;74.00;;;;;;5027794;28;20221;-88
2021/09/09 04:00:41;;;;;;;9.02;8.32;;;19.80;72.90;;;;;;5031832;28;20200;-88
2021/09/09 04:03:07;;;;;;;8.52;7.80;;;19.90;72.80;;;;;;5041876;28;20196;-88
2021/09/09 04:05:32;;;;;;;9.77;8.98;;;19.90;72.70;;;;;;5038579;28;20214;-88
2021/09/09 04:07:58;;;;;;;9.10;8.30;;;19.80;72.70;;;;;;5051770;28;20193;-89
2021/09/09 04:10:25;;;;;;;9.77;8.75;;;19.80;73.40;;;;;;5033886;28;20220;-90
2021/09/09 04:12:51;;;;;;;9.32;8.52;;;19.70;74.00;;;;;;5034926;28;20189;-88
2021/09/09 04:15:17;;;;;;;9.90;8.98;;;19.70;74.10;;;;;;5038228;28;20231;-88
2021/09/09 04:17:43;;;;;;;8.95;8.25;;;19.70;73.60;;;;;;5021831;28;20218;-89
2021/09/09 04:20:10;;;;;;;9.20;8.40;;;19.70;73.30;;;;;;5022619;28;20280;-88
2021/09/09 04:22:36;;;;;;;9.60;8.60;;;19.60;73.50;;;;;;5039398;28;20216;-89
2021/09/09 04:25:04;;;;;;;9.63;8.70;;;19.70;73.80;;;;;;5036758;28;20185;-89
2021/09/09 04:27:31;;;;;;;8.70;7.97;;;19.60;73.70;;;;;;5009264;28;20185;-88
2021/09/09 04:29:57;;;;;;;15.73;14.45;;;19.60;73.80;;;;;;5041798;28;20189;-89
2021/09/09 04:32:23;;;;;;;9.15;8.35;;;19.60;73.60;;;;;;5036248;28;20190;-88
2021/09/09 04:34:49;;;;;;;9.27;8.40;;;19.70;73.70;;;;;;5030764;28;20191;-89
2021/09/09 04:37:15;;;;;;;9.23;8.13;;;19.70;73.20;;;;;;5046085;28;20628;-89
2021/09/09 04:39:41;;;;;;;8.95;8.15;;;19.70;73.10;;;;;;5037874;28;20226;-88
2021/09/09 04:42:07;;;;;;;9.82;8.85;;;19.70;72.80;;;;;;5057536;28;20292;-87
2021/09/09 04:44:33;;;;;;;9.00;8.10;;;19.60;73.20;;;;;;5044350;28;20212;-87
2021/09/09 04:46:59;;;;;;;9.63;8.68;;;19.60;73.60;;;;;;5034044;28;20210;-87
2021/09/09 04:49:26;;;;;;;8.05;7.40;;;19.60;73.50;;;;;;5030598;28;20209;-88
2021/09/09 04:51:51;;;;;;;9.32;8.63;;;19.50;73.50;;;;;;5045826;28;20190;-88
2021/09/09 04:54:17;;;;;;;9.98;8.48;;;19.40;73.60;;;;;;5058927;28;20208;-88
2021/09/09 04:56:43;;;;;;;9.43;8.43;;;19.40;74.00;;;;;;5038655;28;20213;-87
2021/09/09 04:59:09;;;;;;;9.13;8.23;;;19.40;74.50;;;;;;5043356;28;20231;-88
2021/09/09 05:01:35;;;;;;;9.38;8.32;;;19.40;74.60;;;;;;5040524;28;20292;-88
2021/09/09 05:04:01;;;;;;;12.30;9.07;;;19.40;74.20;;;;;;5039941;28;20282;-87
2021/09/09 05:06:27;;;;;;;10.32;8.60;;;19.40;73.60;;;;;;5039627;28;20209;-88
2021/09/09 05:08:52;;;;;;;9.23;8.38;;;19.40;73.40;;;;;;5033072;28;20193;-89
2021/09/09 05:11:18;;;;;;;9.93;8.93;;;19.50;73.70;;;;;;5037991;28;20216;-88
2021/09/09 05:13:44;;;;;;;110.22;17.10;;;19.60;73.30;;;;;;5042669;28;20294;-88
2021/09/09 05:16:11;;;;;;;22.17;9.82;;;19.40;73.50;;;;;;5059117;28;20204;-87
2021/09/09 05:18:40;;;;;;;42.75;11.25;;;19.40;74.00;;;;;;5039724;28;20223;-88
2021/09/09 05:21:06;;;;;;;25.80;10.70;;;19.40;73.80;;;;;;5039520;28;20182;-87
2021/09/09 05:23:32;;;;;;;50.30;13.75;;;19.40;73.70;;;;;;5041834;28;20260;-87
2021/09/09 05:25:57;;;;;;;22.77;10.10;;;19.40;73.90;;;;;;5038093;28;20794;-87
2021/09/09 05:28:23;;;;;;;23.25;10.38;;;19.40;74.40;;;;;;5037649;28;20196;-87
2021/09/09 05:30:49;;;;;;;13.93;9.20;;;19.40;74.30;;;;;;5038612;28;20189;-87
2021/09/09 05:33:15;;;;;;;30.45;11.55;;;19.40;74.50;;;;;;5040363;28;20192;-87
2021/09/09 05:35:41;;;;;;;17.50;10.02;;;19.40;74.20;;;;;;5036356;28;20676;-88
2021/09/09 05:38:07;;;;;;;17.95;9.25;;;19.40;74.70;;;;;;5042347;28;20232;-88
2021/09/09 05:40:33;;;;;;;22.40;9.88;;;19.40;74.50;;;;;;5040977;28;20700;-88
2021/09/09 05:42:59;;;;;;;16.05;9.68;;;19.40;74.50;;;;;;5032827;28;20186;-88
2021/09/09 05:45:25;;;;;;;17.50;9.82;;;19.50;74.40;;;;;;5031141;28;20221;-88
2021/09/09 05:47:51;;;;;;;18.30;9.55;;;19.50;74.30;;;;;;5040609;28;20184;-87
2021/09/09 05:50:17;;;;;;;18.60;10.32;;;19.50;74.40;;;;;;5039852;28;20205;-87
2021/09/09 05:52:44;;;;;;;15.10;10.32;;;19.50;74.40;;;;;;5038273;28;20195;-88
2021/09/09 05:55:10;;;;;;;11.60;9.05;;;19.40;74.90;;;;;;5051154;28;20336;-88
2021/09/09 05:57:36;;;;;;;11.80;9.52;;;19.40;75.10;;;;;;5056073;28;20189;-88
2021/09/09 06:00:02;;;;;;;12.43;9.52;;;19.50;75.10;;;;;;5024435;28;20216;-88
2021/09/09 06:02:28;;;;;;;12.82;9.65;;;19.50;75.10;;;;;;5046406;28;20194;-87
2021/09/09 06:04:59;;;;;;;15.45;10.20;;;19.50;75.00;;;;;;5036398;28;20195;-87
2021/09/09 06:07:27;;;;;;;14.30;9.50;;;19.50;75.30;;;;;;5035254;28;20228;-87
2021/09/09 06:09:53;;;;;;;14.55;10.25;;;19.60;75.50;;;;;;5066557;28;20347;-87
2021/09/09 06:12:19;;;;;;;11.95;8.95;;;19.50;75.70;;;;;;5069548;28;20209;-87
2021/09/09 06:14:45;;;;;;;17.77;10.57;;;19.60;75.50;;;;;;5046924;28;20677;-88
2021/09/09 06:17:11;;;;;;;15.65;10.13;;;19.50;75.80;;;;;;5040902;28;20204;-88
2021/09/09 06:19:37;;;;;;;12.57;10.68;;;19.60;75.70;;;;;;5034892;28;20279;-88
2021/09/09 06:22:03;;;;;;;16.08;9.95;;;19.50;76.50;;;;;;5037585;28;20681;-87
2021/09/09 06:24:29;;;;;;;15.32;10.73;;;19.50;76.40;;;;;;5030112;28;20190;-88
2021/09/09 06:26:55;;;;;;;12.45;9.82;;;19.60;76.60;;;;;;5029807;28;20205;-87
2021/09/09 06:29:21;;;;;;;11.40;10.30;;;19.50;76.90;;;;;;5044331;28;20190;-87
2021/09/09 06:31:47;;;;;;;13.23;9.65;;;19.60;76.60;;;;;;5039861;28;20193;-86
2021/09/09 06:34:13;;;;;;;11.13;10.02;;;19.70;76.40;;;;;;5044703;28;20206;-87
2021/09/09 06:36:39;;;;;;;13.68;9.75;;;19.70;76.10;;;;;;5046626;28;20239;-87
2021/09/09 06:39:06;;;;;;;11.57;9.63;;;19.90;76.20;;;;;;5043368;28;20229;-88
2021/09/09 06:41:32;;;;;;;11.20;9.23;;;19.90;76.50;;;;;;5035942;28;20194;-88
2021/09/09 06:43:58;;;;;;;12.55;9.63;;;20.00;76.00;;;;;;5037232;28;20213;-88
2021/09/09 06:46:24;;;;;;;11.38;10.20;;;20.00;76.40;;;;;;5040320;28;20362;-88
2021/09/09 06:48:50;;;;;;;15.77;10.32;;;20.10;76.10;;;;;;5038397;28;20187;-87
2021/09/09 06:51:19;;;;;;;16.00;11.27;;;20.10;75.90;;;;;;5038250;28;20206;-88
2021/09/09 06:53:44;;;;;;;14.10;11.75;;;20.20;76.40;;;;;;5035500;28;20281;-88
2021/09/09 06:56:10;;;;;;;13.30;11.20;;;20.10;76.80;;;;;;5036457;28;20730;-88
2021/09/09 06:58:36;;;;;;;11.55;10.60;;;19.90;77.60;;;;;;5033120;28;20190;-87
2021/09/09 07:01:02;;;;;;;12.50;11.18;;;19.80;78.00;;;;;;5024373;28;20202;-89
2021/09/09 07:03:30;;;;;;;11.93;10.73;;;19.90;78.50;;;;;;5019286;28;20186;-89
2021/09/09 07:05:56;;;;;;;12.13;10.93;;;19.90;78.30;;;;;;5037368;28;20218;-88
2021/09/09 07:08:22;;;;;;;12.70;11.43;;;20.20;77.50;;;;;;5036360;28;20197;-90
2021/09/09 07:10:48;;;;;;;15.15;11.25;;;20.30;77.00;;;;;;5023326;28;20187;-90
2021/09/09 07:13:17;;;;;;;12.55;11.38;;;20.40;77.50;;;;;;5050503;28;20242;-90
2021/09/09 07:15:43;;;;;;;13.40;12.30;;;20.60;78.00;;;;;;5030464;28;20242;-90
2021/09/09 07:18:09;;;;;;;15.02;13.73;;;20.60;77.80;;;;;;5036981;28;20183;-90
2021/09/09 07:20:34;;;;;;;15.45;13.70;;;20.30;78.70;;;;;;5035952;28;20274;-89
2021/09/09 07:23:00;;;;;;;14.50;13.10;;;20.40;78.60;;;;;;5036623;28;20183;-90
2021/09/09 07:25:26;;;;;;;13.73;12.40;;;20.30;79.80;;;;;;5032915;28;20733;-89
2021/09/09 07:27:52;;;;;;;14.15;12.90;;;20.20;79.80;;;;;;5035955;28;20198;-89
2021/09/09 07:30:18;;;;;;;13.35;12.05;;;20.20;80.20;;;;;;5051973;28;20193;-89
2021/09/09 07:32:43;;;;;;;13.68;12.25;;;20.20;79.60;;;;;;5031435;28;20297;-89
2021/09/09 07:35:10;;;;;;;14.50;12.93;;;20.20;80.10;;;;;;5035861;28;20220;-90
2021/09/09 07:37:36;;;;;;;15.02;13.63;;;20.40;79.50;;;;;;5051140;28;20310;-90
2021/09/09 07:40:03;;;;;;;14.50;13.13;;;20.50;80.10;;;;;;5036052;28;20205;-90
2021/09/09 07:42:29;;;;;;;14.43;13.13;;;20.60;80.30;;;;;;5031476;28;20232;-90
2021/09/09 07:44:55;;;;;;;13.40;12.23;;;20.80;79.00;;;;;;5044038;28;20187;-89
2021/09/09 07:47:21;;;;;;;14.35;13.10;;;20.80;78.90;;;;;;5051304;28;20473;-89
2021/09/09 07:49:46;;;;;;;14.07;12.88;;;20.90;79.40;;;;;;5048572;28;20182;-89
2021/09/09 07:52:12;;;;;;;93.82;19.95;;;20.90;80.10;;;;;;5035109;28;20177;-90
2021/09/09 07:54:38;;;;;;;14.57;13.10;;;21.00;80.30;;;;;;5036445;28;20193;-89
2021/09/09 07:57:04;;;;;;;14.73;13.13;;;21.10;78.50;;;;;;5051932;28;20228;-90
2021/09/09 07:59:30;;;;;;;13.55;12.38;;;21.00;78.80;;;;;;5040367;28;20217;-89
2021/09/09 08:01:56;;;;;;;14.38;13.15;;;21.10;79.40;;;;;;5021633;28;20201;-90
2021/09/09 08:04:23;;;;;;;14.40;13.02;;;21.20;79.40;;;;;;5025329;28;20182;-90
2021/09/09 08:06:49;;;;;;;13.52;12.15;;;21.30;79.20;;;;;;5021053;28;20214;-90
2021/09/09 08:09:14;;;;;;;13.43;12.25;;;21.50;79.20;;;;;;5028096;28;20182;-90
2021/09/09 08:11:40;;;;;;;14.20;12.85;;;21.50;79.80;;;;;;5034023;28;20202;-90
2021/09/09 08:14:06;;;;;;;13.32;11.82;;;21.60;79.50;;;;;;5037728;28;20189;-90
2021/09/09 08:16:33;;;;;;;12.45;11.25;;;21.70;79.20;;;;;;5039679;28;20203;-90
2021/09/09 08:18:58;;;;;;;12.68;11.45;;;21.70;75.30;;;;;;5034170;28;20996;-90
2021/09/09 08:21:24;;;;;;;11.68;10.65;;;21.90;74.90;;;;;;5034443;28;20245;-90
2021/09/09 08:23:50;;;;;;;12.38;11.18;;;22.10;74.60;;;;;;5050798;28;20200;-89
2021/09/09 08:26:16;;;;;;;11.70;10.45;;;22.20;72.80;;;;;;5034158;28;20258;-89
2021/09/09 08:28:42;;;;;;;11.25;10.27;;;22.30;71.90;;;;;;5031479;28;20192;-90
2021/09/09 08:31:08;;;;;;;12.88;10.88;;;22.40;72.20;;;;;;5034552;28;20808;-90
2021/09/09 08:33:33;;;;;;;11.70;9.63;;;22.50;71.20;;;;;;5033688;28;20193;-90
2021/09/09 08:36:06;;;;;;;14.38;8.98;;;22.60;68.80;;;;;;5029315;28;20224;-90
2021/09/09 08:38:33;;;;;;;10.55;9.52;;;22.80;68.90;;;;;;5029424;28;20284;-90
2021/09/09 08:41:00;;;;;;;10.02;9.02;;;22.90;69.80;;;;;;5036163;28;20185;-90
2021/09/09 08:43:26;;;;;;;9.18;8.38;;;23.10;68.70;;;;;;5034286;28;20187;-90
2021/09/09 08:45:53;;;;;;;10.60;8.93;;;23.10;68.00;;;;;;5054559;28;20208;-90
2021/09/09 08:48:20;;;;;;;9.25;8.45;;;23.20;69.10;;;;;;5031665;28;20193;-90
2021/09/09 08:50:47;;;;;;;10.57;8.50;;;23.40;67.80;;;;;;5032235;28;20204;-90
2021/09/09 08:53:14;;;;;;;10.68;8.27;;;23.40;67.00;;;;;;5032637;28;20182;-91
2021/09/09 08:55:43;;;;;;;9.60;7.82;;;23.60;67.30;;;;;;5034089;28;20727;-90
2021/09/09 08:58:09;;;;;;;9.20;8.40;;;23.80;66.90;;;;;;5032314;28;20276;-90
2021/09/09 09:00:35;;;;;;;8.65;7.85;;;24.00;66.60;;;;;;5050365;28;20215;-91
2021/09/09 09:03:05;;;;;;;8.73;7.93;;;24.30;64.80;;;;;;5031969;28;20535;-90
2021/09/09 09:06:17;;;;;;;8.60;7.78;;;24.50;64.00;;;;;;5031276;28;20216;-90
2021/09/09 09:09:00;;;;;;;9.10;8.25;;;24.60;64.00;;;;;;5031019;28;20244;-90
2021/09/09 09:11:32;;;;;;;8.05;7.20;;;24.80;62.70;;;;;;5036947;28;20196;-91
2021/09/09 09:13:59;;;;;;;8.05;7.22;;;24.50;64.60;;;;;;5051930;28;20204;-91
2021/09/09 09:16:26;;;;;;;9.40;7.95;;;24.30;64.80;;;;;;5034193;28;20215;-91
2021/09/09 09:18:52;;;;;;;9.88;7.95;;;24.00;66.00;;;;;;5035800;28;20205;-90
2021/09/09 09:21:20;;;;;;;8.43;7.72;;;23.90;67.20;;;;;;5044796;28;20185;-90
2021/09/09 09:23:57;;;;;;;11.02;7.60;;;23.90;68.40;;;;;;5036620;28;20252;-90
2021/09/09 09:26:23;;;;;;;15.07;7.70;;;24.00;67.00;;;;;;5033744;28;20287;-89
2021/09/09 09:28:52;;;;;;;7.32;6.63;;;24.10;66.30;;;;;;5039179;28;20222;-90
2021/09/09 09:31:19;;;;;;;6.95;6.40;;;23.90;68.00;;;;;;5035173;28;20484;-90
2021/09/09 09:33:51;;;;;;;7.57;6.47;;;24.10;66.70;;;;;;5030446;28;20201;-90
2021/09/09 09:36:18;;;;;;;9.57;6.68;;;24.40;66.40;;;;;;5035137;28;20336;-91
2021/09/09 09:38:45;;;;;;;6.93;6.25;;;24.40;65.90;;;;;;5055299;28;20181;-90
2021/09/09 09:41:12;;;;;;;7.70;6.35;;;24.60;64.90;;;;;;5041873;28;20201;-89
2021/09/09 09:43:38;;;;;;;7.20;6.60;;;24.60;65.20;;;;;;5041927;28;20918;-90
2021/09/09 09:46:05;;;;;;;8.20;6.55;;;24.60;64.50;;;;;;5041750;28;20216;-89
2021/09/09 09:48:35;;;;;;;7.53;6.82;;;24.40;65.00;;;;;;5034327;28;20261;-90
2021/09/09 09:51:02;;;;;;;10.18;6.65;;;24.30;66.10;;;;;;5039066;28;20553;-90
2021/09/09 09:53:29;;;;;;;7.97;7.07;;;24.20;65.40;;;;;;5042231;28;20220;-91
2021/09/09 09:55:55;;;;;;;8.52;6.85;;;24.20;66.10;;;;;;5040323;28;20205;-90
2021/09/09 09:58:21;;;;;;;7.05;6.53;;;24.30;66.50;;;;;;5035964;28;20246;-90
2021/09/09 10:00:46;;;;;;;8.40;7.70;;;24.10;66.10;;;;;;5053661;28;20224;-90
2021/09/09 10:03:13;;;;;;;6.88;6.20;;;24.30;67.20;;;;;;5037305;28;20682;-90
2021/09/09 10:05:39;;;;;;;6.63;6.03;;;24.30;66.70;;;;;;5054403;28;20208;-90
2021/09/09 10:08:07;;;;;;;7.20;6.50;;;24.50;65.60;;;;;;5031322;28;20311;-91
2021/09/09 10:10:32;;;;;;;6.75;6.15;;;24.40;66.00;;;;;;5037603;28;20211;-89
2021/09/09 10:12:59;;;;;;;6.32;5.85;;;24.60;65.20;;;;;;5037922;28;20216;-90
2021/09/09 10:15:26;;;;;;;6.55;5.95;;;25.00;66.30;;;;;;5037389;28;20240;-91
2021/09/09 10:17:54;;;;;;;6.93;6.28;;;25.40;64.00;;;;;;5038919;28;20197;-89
2021/09/09 10:20:42;;;;;;;7.03;6.35;;;25.50;63.00;;;;;;5034649;28;20223;-90
2021/09/09 10:23:10;;;;;;;7.15;6.32;;;25.60;61.30;;;;;;5055012;28;20216;-90
2021/09/09 10:25:54;;;;;;;6.95;6.18;;;25.40;62.40;;;;;;5035482;28;20219;-89
2021/09/09 10:28:40;;;;;;;6.95;6.07;;;25.00;64.60;;;;;;5040210;28;20193;-90
2021/09/09 10:31:06;;;;;;;6.40;5.22;;;25.10;65.00;;;;;;5040650;28;20287;-90
2021/09/09 10:33:32;;;;;;;7.05;5.85;;;25.50;62.90;;;;;;5038208;28;21107;-91
2021/09/09 10:35:59;;;;;;;6.68;6.07;;;25.90;63.50;;;;;;5036916;28;20241;-90
2021/09/09 10:38:33;;;;;;;7.75;6.18;;;26.10;63.80;;;;;;5055087;28;20185;-89
2021/09/09 10:41:01;;;;;;;7.38;6.60;;;26.20;61.10;;;;;;5039734;28;20209;-92
2021/09/09 10:43:27;;;;;;;8.20;6.43;;;26.20;61.30;;;;;;5038977;28;20649;-89
2021/09/09 10:46:09;;;;;;;7.57;6.85;;;26.20;61.80;;;;;;5035828;28;20213;-89
2021/09/09 10:48:34;;;;;;;7.20;6.60;;;26.10;63.10;;;;;;5033474;28;20243;-88
2021/09/09 10:51:10;;;;;;;10.05;7.40;;;26.40;60.30;;;;;;5035988;28;20188;-89
2021/09/09 10:53:36;;;;;;;10.95;7.10;;;26.30;60.70;;;;;;5040198;28;20177;-89
2021/09/09 10:56:16;;;;;;;8.07;6.70;;;26.40;60.90;;;;;;5053854;28;20746;-89
2021/09/09 10:58:43;;;;;;;6.95;6.30;;;26.70;61.50;;;;;;5037655;28;20189;-89
2021/09/09 11:01:11;;;;;;;9.38;6.95;;;26.60;60.30;;;;;;5054202;28;20216;-89
2021/09/09 11:03:38;;;;;;;6.63;6.07;;;26.60;60.70;;;;;;5035574;28;20204;-91
2021/09/09 11:06:06;;;;;;;7.50;6.50;;;26.10;61.50;;;;;;5030043;28;20224;-89
2021/09/09 11:08:32;;;;;;;7.13;5.90;;;26.10;61.70;;;;;;5036360;28;20271;-91
2021/09/09 11:10:58;;;;;;;6.88;6.30;;;26.20;59.90;;;;;;5035701;28;20324;-91
2021/09/09 11:13:26;;;;;;;7.63;5.80;;;26.20;60.60;;;;;;5034210;28;20303;-88
2021/09/09 11:15:52;;;;;;;10.57;6.70;;;26.10;62.40;;;;;;5028049;28;20215;-88
2021/09/09 11:18:28;;;;;;;7.78;6.70;;;25.90;62.20;;;;;;5032781;28;20243;-91
2021/09/09 11:21:04;;;;;;;7.20;6.53;;;25.70;62.90;;;;;;5035326;28;20256;-91
2021/09/09 11:23:30;;;;;;;7.05;6.43;;;25.80;63.10;;;;;;5051777;28;20185;-90
2021/09/09 11:25:56;;;;;;;6.70;6.07;;;25.80;63.40;;;;;;5037447;28;20303;-91
2021/09/09 11:28:21;;;;;;;7.55;6.20;;;26.00;63.30;;;;;;5030172;28;20245;-90
2021/09/09 11:31:11;;;;;;;7.85;6.55;;;25.90;62.60;;;;;;5035991;28;20955;-91
2021/09/09 11:33:51;;;;;;;16.27;7.10;;;26.20;63.00;;;;;;5035497;28;20375;-88
2021/09/09 11:36:17;;;;;;;6.57;5.90;;;26.30;61.80;;;;;;5035410;28;20224;-91
2021/09/09 11:38:44;;;;;;;7.75;6.20;;;26.70;59.90;;;;;;5032981;28;20203;-90
2021/09/09 11:41:18;;;;;;;8.73;6.38;;;27.10;60.40;;;;;;5030832;28;20181;-91
2021/09/09 11:43:49;;;;;;;10.25;6.43;;;27.50;55.70;;;;;;5031017;28;20331;-91
2021/09/09 11:46:23;;;;;;;6.82;6.32;;;27.60;53.50;;;;;;5035465;28;20228;-91
2021/09/09 11:48:53;;;;;;;9.82;6.22;;;27.40;52.20;;;;;;5036599;28;20212;-91
2021/09/09 11:51:50;;;;;;;8.20;6.28;;;27.20;53.60;;;;;;5034366;28;20182;-91
2021/09/09 11:54:17;;;;;;;10.38;6.40;;;27.30;53.90;;;;;;5005169;28;20197;-91
2021/09/09 11:56:43;;;;;;;6.60;5.97;;;27.40;52.90;;;;;;5034852;28;20225;-91
2021/09/09 11:59:17;;;;;;;6.50;5.90;;;27.80;52.20;;;;;;5039974;28;20223;-91
2021/09/09 12:01:44;;;;;;;6.65;5.82;;;27.70;52.20;;;;;;5041182;28;20671;-90
2021/09/09 12:04:11;;;;;;;6.60;6.10;;;27.60;52.50;;;;;;5041238;28;20185;-90
2021/09/09 12:06:38;;;;;;;7.07;6.47;;;27.40;53.20;;;;;;5056467;28;20248;-89
2021/09/09 12:09:04;;;;;;;10.93;6.93;;;27.20;54.50;;;;;;5072127;28;20165;-88
2021/09/09 12:11:30;;;;;;;7.40;6.63;;;27.10;55.30;;;;;;5046302;28;20193;-89
2021/09/09 12:13:56;;;;;;;7.20;6.50;;;27.10;54.50;;;;;;5032115;28;20188;-89
2021/09/09 12:16:24;;;;;;;6.57;6.07;;;26.90;55.50;;;;;;5037255;28;20259;-90
2021/09/09 12:19:02;;;;;;;7.55;6.75;;;26.90;55.50;;;;;;5050618;28;20235;-90
2021/09/09 12:21:28;;;;;;;7.45;6.85;;;26.40;56.80;;;;;;5032135;28;20231;-89
2021/09/09 12:24:11;;;;;;;7.40;6.80;;;26.40;56.00;;;;;;5044700;28;20216;-89
2021/09/09 12:26:39;;;;;;;8.50;7.53;;;26.10;56.30;;;;;;5048729;28;20220;-89
2021/09/09 12:29:16;;;;;;;7.55;6.88;;;26.00;56.90;;;;;;5036851;28;20711;-89
2021/09/09 12:31:42;;;;;;;11.98;7.38;;;26.30;55.30;;;;;;5027876;28;20657;-90
2021/09/09 12:34:13;;;;;;;10.55;7.60;;;26.50;55.10;;;;;;5037623;28;20197;-90
2021/09/09 12:36:48;;;;;;;8.90;7.82;;;26.40;54.00;;;;;;5033480;28;20224;-90
2021/09/09 12:39:16;;;;;;;7.72;7.00;;;26.40;53.30;;;;;;5051044;28;20224;-90
2021/09/09 12:41:43;;;;;;;7.82;7.10;;;26.40;51.90;;;;;;5035689;28;20189;-90